Time;durP1;ratioP1;P1;durP2;ratioP2;P2;SDS_P1;SDS_P2;PMS_P1;PMS_P2;Temp;Humidity;BMP_temperature;BMP_pressure;BME280_temperature;BME280_humidity;BME280_pressure;Samples;Min_cycle;Max_cycle;Signal;HPM_P1;HPM_P2
2022/11/30 00:00:56;;;;;;;54.33;28.00;;;154.20;2252.80;;;;;;5025421;28;20095;-83
2022/11/30 00:03:22;;;;;;;;;;;154.20;2252.80;;;;;;5021689;28;20034;-82
2022/11/30 00:05:48;;;;;;;60.50;28.40;;;154.30;2252.80;;;;;;5010082;28;20405;-81
2022/11/30 00:08:13;;;;;;;;;;;154.30;2252.80;;;;;;5009202;28;20045;-82
2022/11/30 00:10:40;;;;;;;59.58;28.83;;;154.30;2252.80;;;;;;5008034;28;19912;-83
2022/11/30 00:13:06;;;;;;;64.75;29.80;;;154.20;2252.80;;;;;;5003597;28;20381;-80
2022/11/30 00:15:31;;;;;;;;;;;154.30;2252.80;;;;;;5005553;28;20033;-83
2022/11/30 00:17:58;;;;;;;61.65;28.80;;;154.30;2252.80;;;;;;5020986;28;19909;-78
2022/11/30 00:20:24;;;;;;;61.72;29.35;;;154.40;2252.80;;;;;;5002722;28;20025;-83
2022/11/30 00:22:50;;;;;;;60.33;29.90;;;154.40;2252.80;;;;;;5019819;28;20029;-78
2022/11/30 00:25:15;;;;;;;;;;;154.30;2252.80;;;;;;5010048;28;20140;-82
2022/11/30 00:27:41;;;;;;;60.05;28.27;;;154.30;2252.80;;;;;;5028166;28;19981;-83
2022/11/30 00:30:07;;;;;;;;;;;154.20;2252.80;;;;;;5008397;28;20040;-83
2022/11/30 00:32:33;;;;;;;54.67;26.73;;;154.20;2252.80;;;;;;5009305;28;20338;-78
2022/11/30 00:34:58;;;;;;;;;;;154.20;2252.80;;;;;;5004863;28;20123;-83
2022/11/30 00:37:24;;;;;;;63.78;28.67;;;154.20;2252.80;;;;;;5008197;28;19905;-78
2022/11/30 00:39:50;;;;;;;;;;;154.10;2252.80;;;;;;5004126;28;20033;-83
2022/11/30 00:42:15;;;;;;;64.88;29.85;;;154.10;2252.80;;;;;;5004270;28;19932;-78
2022/11/30 00:44:41;;;;;;;;;;;154.20;2252.80;;;;;;5010278;28;20032;-83
2022/11/30 00:47:07;;;;;;;66.90;30.52;;;154.20;2252.80;;;;;;4998111;28;19920;-82
2022/11/30 00:49:32;;;;;;;;;;;154.20;2252.80;;;;;;5001784;28;20021;-83
2022/11/30 00:51:59;;;;;;;56.80;27.45;;;154.30;2252.80;;;;;;5001684;28;20000;-83
2022/11/30 00:54:25;;;;;;;63.53;29.90;;;154.20;2252.80;;;;;;5005480;28;20037;-79
2022/11/30 00:56:51;;;;;;;;;;;154.30;2252.80;;;;;;5006214;28;20033;-82
2022/11/30 00:59:16;;;;;;;55.65;28.20;;;154.30;2252.80;;;;;;5001237;28;19917;-78
2022/11/30 01:01:42;;;;;;;;;;;154.40;2252.80;;;;;;5006693;28;20021;-83
2022/11/30 01:04:08;;;;;;;58.17;29.30;;;154.30;2252.80;;;;;;5007456;28;19912;-79
2022/11/30 01:06:33;;;;;;;;;;;154.30;2252.80;;;;;;5021711;28;20022;-83
2022/11/30 01:08:59;;;;;;;59.13;29.25;;;154.20;2252.80;;;;;;5023833;28;19905;-82
2022/11/30 01:11:26;;;;;;;;;;;154.20;2252.80;;;;;;5006156;28;20494;-82
2022/11/30 01:13:52;;;;;;;62.38;29.63;;;154.30;2252.80;;;;;;5008300;28;19905;-82
2022/11/30 01:16:24;;;;;;;60.80;30.17;;;154.40;2252.80;;;;;;5007735;28;20030;-78
2022/11/30 01:18:50;;;;;;;61.88;28.95;;;154.30;2252.80;;;;;;5003381;28;20120;-79
2022/11/30 01:21:20;;;;;;;;;;;154.30;2252.80;;;;;;5012449;28;20104;-79
2022/11/30 01:23:47;;;;;;;60.45;28.33;;;154.40;2252.80;;;;;;5011252;28;19986;-80
2022/11/30 01:26:13;;;;;;;56.58;28.63;;;154.30;2252.80;;;;;;5011645;28;20101;-81
2022/11/30 01:28:44;;;;;;;;;;;154.30;2252.80;;;;;;5005146;28;20116;-83
2022/11/30 01:31:12;;;;;;;62.58;29.02;;;154.30;2252.80;;;;;;5018066;28;19959;-83
2022/11/30 01:33:39;;;;;;;58.80;28.05;;;154.40;2252.80;;;;;;5034665;28;20029;-79
2022/11/30 01:36:16;;;;;;;59.72;27.60;;;154.30;2252.80;;;;;;5034411;28;20055;-83
2022/11/30 01:38:49;;;;;;;64.45;29.70;;;154.20;2252.80;;;;;;5034345;28;20056;-83
2022/11/30 01:41:20;;;;;;;62.05;30.20;;;154.20;2252.80;;;;;;5033471;28;20041;-83
2022/11/30 01:43:50;;;;;;;60.45;28.83;;;154.20;2252.80;;;;;;5017415;28;20030;-82
2022/11/30 01:46:40;;;;;;;59.80;28.52;;;154.10;2252.80;;;;;;5018043;28;20489;-79
2022/11/30 01:49:09;;;;;;;61.08;30.02;;;154.20;2252.80;;;;;;5015787;28;20033;-83
2022/11/30 01:51:52;;;;;;;58.72;31.15;;;154.30;2252.80;;;;;;5017570;28;20485;-83
2022/11/30 01:54:45;;;;;;;60.28;29.52;;;154.40;2252.80;;;;;;5017982;28;20060;-80
2022/11/30 01:57:44;;;;;;;66.95;29.38;;;154.40;2252.80;;;;;;5017143;28;20037;-80
2022/11/30 02:00:13;;;;;;;60.85;30.10;;;154.30;2252.80;;;;;;5017388;28;20056;-80
2022/11/30 02:02:47;;;;;;;61.10;28.92;;;154.20;2252.80;;;;;;5034608;28;20078;-78
2022/11/30 02:05:14;;;;;;;60.03;29.13;;;154.20;2252.80;;;;;;5017085;28;20033;-82
2022/11/30 02:07:41;;;;;;;62.55;29.50;;;154.30;2252.80;;;;;;5033104;28;20029;-83
2022/11/30 02:10:16;;;;;;;58.05;28.52;;;154.40;2252.80;;;;;;5019847;28;20029;-83
2022/11/30 02:13:08;;;;;;;52.10;28.80;;;154.40;2252.80;;;;;;5033883;28;20104;-83
2022/11/30 02:16:12;;;;;;;56.35;28.38;;;154.40;2252.80;;;;;;5029935;28;20112;-83
2022/11/30 02:18:49;;;;;;;55.70;28.90;;;154.50;2252.80;;;;;;4976597;28;20041;-78
2022/11/30 02:21:24;;;;;;;65.20;31.80;;;154.50;2252.80;;;;;;5009117;28;20524;-83
2022/11/30 02:24:05;;;;;;;58.00;28.23;;;154.50;2252.80;;;;;;5017027;28;20021;-83
2022/11/30 02:26:55;;;;;;;57.30;28.73;;;154.50;2252.80;;;;;;5021407;28;20060;-83
2022/11/30 02:29:30;;;;;;;60.80;30.00;;;154.50;2252.80;;;;;;5021780;28;20466;-83
2022/11/30 02:31:58;;;;;;;59.65;29.52;;;154.30;2252.80;;;;;;5016369;28;20045;-83
2022/11/30 02:34:29;;;;;;;59.85;28.75;;;154.30;2252.80;;;;;;5016599;28;20482;-83
2022/11/30 02:36:57;;;;;;;56.88;29.67;;;154.40;2252.80;;;;;;5020075;28;20148;-82
2022/11/30 02:39:23;;;;;;;53.95;28.10;;;154.40;2252.80;;;;;;5004507;28;20414;-82
2022/11/30 02:41:48;;;;;;;;;;;154.40;2252.80;;;;;;5017139;28;20026;-80
2022/11/30 02:44:15;;;;;;;55.67;26.52;;;154.50;2252.80;;;;;;5002008;28;19906;-80
2022/11/30 02:47:08;;;;;;;55.58;27.23;;;154.50;2252.80;;;;;;5004195;28;20083;-79
2022/11/30 02:49:48;;;;;;;60.40;28.38;;;154.40;2252.80;;;;;;5016556;28;20036;-80
2022/11/30 02:52:15;;;;;;;56.38;28.92;;;154.30;2252.80;;;;;;5016483;28;20037;-83
2022/11/30 02:54:41;;;;;;;55.28;29.70;;;154.40;2252.80;;;;;;5013414;28;20482;-78
2022/11/30 02:57:06;;;;;;;;;;;154.40;2252.80;;;;;;5014859;28;20037;-78
2022/11/30 02:59:32;;;;;;;55.50;29.65;;;154.40;2252.80;;;;;;5013007;28;19914;-83
2022/11/30 03:01:58;;;;;;;;;;;154.20;2252.80;;;;;;5003717;28;20037;-79
2022/11/30 03:04:23;;;;;;;60.33;29.23;;;154.10;2252.80;;;;;;5016520;28;19905;-81
2022/11/30 03:06:49;;;;;;;;;;;154.20;2252.80;;;;;;5016827;28;20017;-79
2022/11/30 03:09:15;;;;;;;55.22;29.30;;;154.20;2252.80;;;;;;5032798;28;19905;-82
2022/11/30 03:11:40;;;;;;;;;;;154.20;2252.80;;;;;;5030068;28;20022;-79
2022/11/30 03:14:06;;;;;;;59.15;28.15;;;154.20;2252.80;;;;;;5012451;28;19905;-84
2022/11/30 03:16:32;;;;;;;;;;;154.20;2252.80;;;;;;5009748;28;20128;-83
2022/11/30 03:18:58;;;;;;;58.45;28.42;;;154.20;2252.80;;;;;;5012442;28;20358;-79
2022/11/30 03:21:24;;;;;;;;;;;154.20;2252.80;;;;;;5026939;28;20026;-83
2022/11/30 03:23:49;;;;;;;61.60;28.52;;;154.20;2252.80;;;;;;5014800;28;19913;-82
2022/11/30 03:26:15;;;;;;;;;;;154.10;2252.80;;;;;;5006790;28;20025;-78
2022/11/30 03:28:41;;;;;;;60.72;27.48;;;154.20;2252.80;;;;;;5015139;28;19906;-83
2022/11/30 03:31:09;;;;;;;;;;;154.10;2252.80;;;;;;5014247;28;20659;-83
2022/11/30 03:33:35;;;;;;;62.88;30.10;;;154.10;2252.80;;;;;;5013548;28;19920;-83
2022/11/30 03:36:01;;;;;;;;;;;154.00;2252.80;;;;;;5016152;28;20025;-83
2022/11/30 03:38:28;;;;;;;42.90;22.30;;;154.10;2252.80;;;;;;5020201;28;20357;-82
2022/11/30 03:41:04;;;;;;;;;;;154.00;2252.80;;;;;;5015770;28;20029;-83
2022/11/30 03:43:30;;;;;;;51.88;26.60;;;154.10;2252.80;;;;;;5024335;28;19905;-83
2022/11/30 03:45:55;;;;;;;;;;;154.20;2252.80;;;;;;5010088;28;20363;-83
2022/11/30 03:48:21;;;;;;;50.72;26.67;;;154.10;2252.80;;;;;;5015883;28;19913;-79
2022/11/30 03:50:48;;;;;;;52.88;28.77;;;154.00;2252.80;;;;;;5015369;28;20033;-81
2022/11/30 03:53:19;;;;;;;58.58;28.77;;;154.00;2252.80;;;;;;5015631;28;20037;-83
2022/11/30 03:55:45;;;;;;;59.75;27.67;;;153.90;2252.80;;;;;;5015311;28;20071;-81
2022/11/30 03:58:11;;;;;;;54.03;28.08;;;154.00;2252.80;;;;;;5017890;28;20049;-77
2022/11/30 04:00:37;;;;;;;;;;;154.10;2252.80;;;;;;5032733;28;20032;-82
2022/11/30 04:03:03;;;;;;;59.28;27.60;;;154.10;2252.80;;;;;;5019280;28;20385;-78
2022/11/30 04:05:28;;;;;;;;;;;154.10;2252.80;;;;;;5015430;28;20032;-81
2022/11/30 04:07:54;;;;;;;60.65;28.25;;;154.10;2252.80;;;;;;5019342;28;19932;-83
2022/11/30 04:10:19;;;;;;;;;;;154.10;2252.80;;;;;;5015098;28;20033;-83
2022/11/30 04:12:45;;;;;;;56.17;26.67;;;154.10;2252.80;;;;;;5015218;28;19955;-82
2022/11/30 04:15:11;;;;;;;;;;;154.10;2252.80;;;;;;5028336;28;20018;-82
2022/11/30 04:17:36;;;;;;;51.75;27.17;;;154.20;2252.80;;;;;;5011826;28;19928;-82
2022/11/30 04:20:03;;;;;;;;;;;154.10;2252.80;;;;;;5013983;28;20030;-83
2022/11/30 04:22:28;;;;;;;55.28;27.08;;;154.10;2252.80;;;;;;5015439;28;20000;-83
2022/11/30 04:24:54;;;;;;;;;;;153.90;2252.80;;;;;;5032274;28;20466;-78
2022/11/30 04:27:19;;;;;;;57.08;27.48;;;154.00;2252.80;;;;;;5017680;28;19960;-83
2022/11/30 04:29:45;;;;;;;;;;;154.00;2252.80;;;;;;5031941;28;20037;-79
2022/11/30 04:32:11;;;;;;;56.00;27.85;;;154.10;2252.80;;;;;;5031206;28;19913;-82
2022/11/30 04:34:37;;;;;;;;;;;154.00;2252.80;;;;;;5033205;28;20355;-79
2022/11/30 04:37:03;;;;;;;53.13;27.48;;;154.10;2252.80;;;;;;5012970;28;19913;-83
2022/11/30 04:39:31;;;;;;;;;;;154.00;2252.80;;;;;;5007607;28;20051;-82
2022/11/30 04:41:57;;;;;;;53.22;26.05;;;154.00;2252.80;;;;;;5019019;28;19988;-83
2022/11/30 04:44:22;;;;;;;;;;;154.10;2252.80;;;;;;5047219;28;20052;-79
2022/11/30 04:46:48;;;;;;;49.55;25.92;;;154.10;2252.80;;;;;;5019012;28;20282;-78
2022/11/30 04:49:14;;;;;;;;;;;154.10;2252.80;;;;;;5018876;28;20116;-82
2022/11/30 04:51:39;;;;;;;54.95;26.00;;;154.10;2252.80;;;;;;5019084;28;19905;-82
2022/11/30 04:54:05;;;;;;;;;;;154.10;2252.80;;;;;;5018401;28;20038;-83
2022/11/30 04:56:30;;;;;;;48.65;25.92;;;154.10;2252.80;;;;;;5021503;28;19905;-82
2022/11/30 04:58:56;;;;;;;;;;;154.10;2252.80;;;;;;5019203;28;20478;-83
2022/11/30 05:01:23;;;;;;;50.28;25.75;;;154.10;2252.80;;;;;;5032910;28;19948;-82
2022/11/30 05:03:49;;;;;;;52.70;25.95;;;154.20;2252.80;;;;;;5018550;28;20548;-82
2022/11/30 05:06:14;;;;;;;;;;;154.20;2252.80;;;;;;5022770;28;20058;-82
2022/11/30 05:08:40;;;;;;;49.78;25.25;;;154.20;2252.80;;;;;;5016373;28;20279;-83
2022/11/30 05:11:06;;;;;;;;;;;154.20;2252.80;;;;;;5015205;28;20026;-82
2022/11/30 05:13:31;;;;;;;47.72;25.10;;;154.20;2252.80;;;;;;5014200;28;19906;-83
2022/11/30 05:15:57;;;;;;;;;;;154.20;2252.80;;;;;;5026480;28;20592;-83
2022/11/30 05:18:22;;;;;;;49.15;27.33;;;154.10;2252.80;;;;;;5018383;28;20360;-83
2022/11/30 05:20:49;;;;;;;;;;;154.10;2252.80;;;;;;5017553;28;20029;-78
2022/11/30 05:23:16;;;;;;;39.92;22.10;;;154.10;2252.80;;;;;;5023909;28;19912;-79
2022/11/30 05:25:42;;;;;;;49.17;26.08;;;154.00;2252.80;;;;;;5017365;28;20034;-81
2022/11/30 05:28:08;;;;;;;51.53;26.15;;;154.00;2252.80;;;;;;5024813;28;20516;-80
2022/11/30 05:30:33;;;;;;;;;;;154.00;2252.80;;;;;;5017658;28;20013;-82
2022/11/30 05:32:59;;;;;;;48.03;24.65;;;154.00;2252.80;;;;;;5034034;28;20337;-83
2022/11/30 05:35:25;;;;;;;;;;;154.00;2252.80;;;;;;5032041;28;20036;-83
2022/11/30 05:37:50;;;;;;;47.83;25.40;;;154.10;2252.80;;;;;;5014347;28;19905;-84
2022/11/30 05:40:16;;;;;;;;;;;154.10;2252.80;;;;;;5012094;28;20044;-83
2022/11/30 05:42:42;;;;;;;46.92;23.95;;;154.10;2252.80;;;;;;5015712;28;19905;-84
2022/11/30 05:45:07;;;;;;;;;;;154.00;2252.80;;;;;;5023920;28;20381;-82
2022/11/30 05:47:33;;;;;;;49.15;25.75;;;154.00;2252.80;;;;;;5021052;28;19909;-80
2022/11/30 05:49:59;;;;;;;;;;;154.10;2252.80;;;;;;5017404;28;20079;-77
2022/11/30 05:52:24;;;;;;;49.17;25.02;;;154.10;2252.80;;;;;;5022847;28;20370;-78
2022/11/30 05:54:50;;;;;;;;;;;154.10;2252.80;;;;;;5015945;28;20033;-79
2022/11/30 05:57:16;;;;;;;47.58;24.80;;;154.10;2252.80;;;;;;5013995;28;20391;-83
2022/11/30 05:59:41;;;;;;;;;;;154.00;2252.80;;;;;;5012130;28;20041;-83
2022/11/30 06:02:07;;;;;;;47.33;24.48;;;154.00;2252.80;;;;;;5014822;28;19917;-83
2022/11/30 06:04:33;;;;;;;;;;;153.90;2252.80;;;;;;5014854;28;20037;-78
2022/11/30 06:06:59;;;;;;;49.05;23.98;;;153.90;2252.80;;;;;;5017334;28;19905;-82
2022/11/30 06:09:24;;;;;;;;;;;153.90;2252.80;;;;;;5023515;28;20087;-82
2022/11/30 06:11:50;;;;;;;45.35;26.88;;;153.90;2252.80;;;;;;5014004;28;19928;-83
2022/11/30 06:14:16;;;;;;;;;;;153.90;2252.80;;;;;;5008354;28;20033;-83
2022/11/30 06:16:41;;;;;;;48.38;25.15;;;153.90;2252.80;;;;;;5031451;28;20383;-79
2022/11/30 06:19:07;;;;;;;;;;;154.00;2252.80;;;;;;5006549;28;20045;-82
2022/11/30 06:21:33;;;;;;;52.53;26.73;;;154.00;2252.80;;;;;;5033610;28;19951;-82
2022/11/30 06:23:59;;;;;;;44.75;23.67;;;154.20;2252.80;;;;;;5003169;28;20057;-83
2022/11/30 06:26:25;;;;;;;;;;;154.00;2252.80;;;;;;5017627;28;20055;-87
2022/11/30 06:28:50;;;;;;;47.55;24.77;;;154.00;2252.80;;;;;;5033346;28;19905;-84
2022/11/30 06:31:16;;;;;;;;;;;154.00;2252.80;;;;;;5027621;28;20033;-83
2022/11/30 06:33:42;;;;;;;40.65;23.58;;;154.10;2252.80;;;;;;5009073;28;20369;-83
2022/11/30 06:36:08;;;;;;;;;;;154.00;2252.80;;;;;;5004893;28;20103;-80
2022/11/30 06:38:33;;;;;;;59.65;30.98;;;154.00;2252.80;;;;;;4999566;28;19925;-83
2022/11/30 06:41:04;;;;;;;;;;;154.10;2252.80;;;;;;5005753;28;20568;-83
2022/11/30 06:43:35;;;;;;;53.92;26.52;;;154.00;2252.80;;;;;;5017207;28;20356;-78
2022/11/30 06:46:02;;;;;;;60.70;31.67;;;154.00;2252.80;;;;;;5026333;28;20052;-83
2022/11/30 06:48:28;;;;;;;50.63;25.80;;;153.90;2252.80;;;;;;5014782;28;20021;-79
2022/11/30 06:50:54;;;;;;;;;;;154.00;2252.80;;;;;;5011052;28;20075;-78
2022/11/30 06:53:19;;;;;;;44.28;23.70;;;153.90;2252.80;;;;;;5033123;28;20398;-84
2022/11/30 06:55:45;;;;;;;;;;;154.00;2252.80;;;;;;5016913;28;20022;-78
2022/11/30 06:58:11;;;;;;;53.08;31.48;;;154.00;2252.80;;;;;;5018426;28;19968;-87
2022/11/30 07:00:37;;;;;;;;;;;154.00;2252.80;;;;;;5023703;28;20390;-80
2022/11/30 07:03:04;;;;;;;79.18;46.40;;;154.00;2252.80;;;;;;5014036;28;20438;-80
2022/11/30 07:05:33;;;;;;;90.57;52.97;;;154.10;2252.80;;;;;;5002548;28;20120;-86
2022/11/30 07:07:59;;;;;;;97.43;59.13;;;154.10;2252.80;;;;;;5028323;28;20087;-87
2022/11/30 07:10:25;;;;;;;;;;;154.10;2252.80;;;;;;5012239;28;20049;-84
2022/11/30 07:12:50;;;;;;;88.15;52.75;;;154.10;2252.80;;;;;;5012062;28;19944;-78
2022/11/30 07:15:16;;;;;;;;;;;154.10;2252.80;;;;;;5012439;28;20021;-82
2022/11/30 07:17:42;;;;;;;108.25;58.85;;;154.20;2252.80;;;;;;5003577;28;20320;-81
2022/11/30 07:20:08;;;;;;;;;;;154.10;2252.80;;;;;;5033238;28;20115;-80
2022/11/30 07:22:33;;;;;;;75.78;43.83;;;154.20;2252.80;;;;;;5014735;28;19910;-80
2022/11/30 07:27:43;;;;;;;59.30;36.47;;;154.20;2252.80;;;;;;5029114;28;19972;-79
2022/11/30 07:30:09;;;;;;;;;;;154.20;2252.80;;;;;;5008057;28;20061;-86
2022/11/30 07:32:34;;;;;;;41.15;24.90;;;154.30;2252.80;;;;;;5004316;28;19920;-82
2022/11/30 07:35:00;;;;;;;;;;;154.40;2252.80;;;;;;5007951;28;20030;-81
2022/11/30 07:37:26;;;;;;;43.33;23.30;;;154.40;2252.80;;;;;;5010090;28;19911;-90
2022/11/30 07:39:51;;;;;;;;;;;154.50;2252.80;;;;;;5009659;28;20088;-85
2022/11/30 07:42:17;;;;;;;44.38;25.75;;;154.40;2252.80;;;;;;5027572;28;19916;-89
2022/11/30 07:44:43;;;;;;;;;;;154.40;2252.80;;;;;;5019730;28;20014;-85
2022/11/30 07:47:08;;;;;;;38.80;22.38;;;154.40;2252.80;;;;;;5014723;28;19908;-82
2022/11/30 07:49:34;;;;;;;;;;;154.40;2252.80;;;;;;5015487;28;20041;-82
2022/11/30 07:52:03;;;;;;;43.97;25.27;;;154.40;2252.80;;;;;;5014804;28;20308;-87
2022/11/30 07:54:28;;;;;;;45.20;25.13;;;154.40;2252.80;;;;;;5015502;28;20082;-80
2022/11/30 07:56:54;;;;;;;;;;;154.50;2252.80;;;;;;5020143;28;20038;-86
2022/11/30 07:59:20;;;;;;;40.00;21.50;;;179.20;2252.80;;;;;;5014678;28;19924;-85
2022/11/30 08:01:45;;;;;;;;;;;179.20;2252.80;;;;;;5023627;28;20034;-85
2022/11/30 08:04:12;;;;;;;46.30;26.58;;;179.30;2252.80;;;;;;5015500;28;19909;-83
2022/11/30 08:06:38;;;;;;;46.70;24.80;;;179.30;2252.80;;;;;;5046936;28;20028;-84
2022/11/30 08:09:06;;;;;;;;;;;179.40;2252.80;;;;;;5004536;28;20030;-92
2022/11/30 08:11:33;;;;;;;40.20;22.63;;;179.50;2252.80;;;;;;5008171;28;19908;-80
2022/11/30 08:14:00;;;;;;;40.08;23.73;;;179.40;2252.80;;;;;;5012231;28;20049;-81
2022/11/30 08:16:28;;;;;;;36.15;20.05;;;179.40;2252.80;;;;;;5005253;28;20363;-81
2022/11/30 08:18:55;;;;;;;35.83;19.95;;;179.40;2252.80;;;;;;5031848;28;20049;-82
2022/11/30 08:21:21;;;;;;;35.85;21.08;;;179.50;2252.80;;;;;;5015497;28;20021;-82
2022/11/30 08:23:55;;;;;;;73.38;41.55;;;179.60;2252.80;;;;;;5032401;28;20097;-84
2022/11/30 08:26:22;;;;;;;39.08;25.85;;;179.60;2252.80;;;;;;5028461;28;20075;-81
2022/11/30 08:28:50;;;;;;;41.30;23.45;;;179.60;2252.80;;;;;;5014674;28;20052;-81
2022/11/30 08:31:27;;;;;;;37.08;21.00;;;179.70;2252.80;;;;;;5014307;28;20030;-82
2022/11/30 08:33:57;;;;;;;40.30;21.45;;;179.70;2252.80;;;;;;5031998;28;20030;-84
2022/11/30 08:36:24;;;;;;;37.05;20.42;;;179.70;2252.80;;;;;;5031834;28;20022;-86
2022/11/30 08:38:49;;;;;;;36.17;20.20;;;179.80;2252.80;;;;;;5023597;28;20029;-83
2022/11/30 08:41:18;;;;;;;;;;;180.10;2252.80;;;;;;5015005;28;20022;-80
2022/11/30 08:43:44;;;;;;;34.67;20.17;;;179.80;2252.80;;;;;;5004659;28;19906;-83
2022/11/30 08:46:12;;;;;;;36.10;21.30;;;179.90;2252.80;;;;;;5025080;28;20053;-85
2022/11/30 08:48:38;;;;;;;34.88;21.50;;;180.00;2252.80;;;;;;5004979;28;20029;-80
2022/11/30 08:51:04;;;;;;;;;;;180.10;2252.80;;;;;;5032484;28;20025;-82
2022/11/30 08:53:31;;;;;;;34.75;19.70;;;204.80;2252.80;;;;;;5015088;28;19924;-81
2022/11/30 08:56:02;;;;;;;37.35;19.98;;;180.10;2252.80;;;;;;5031990;28;20466;-80
2022/11/30 08:58:34;;;;;;;39.90;21.00;;;204.80;2252.80;;;;;;5031582;28;20081;-85
2022/11/30 09:01:19;;;;;;;32.67;18.75;;;204.90;2252.80;;;;;;5021840;28;20110;-82
2022/11/30 09:03:47;;;;;;;28.10;15.23;;;205.00;2252.80;;;;;;5015189;28;20028;-83
2022/11/30 09:06:24;;;;;;;22.85;14.77;;;204.90;2252.80;;;;;;5020926;28;20025;-80
2022/11/30 09:08:51;;;;;;;22.38;13.38;;;205.00;2252.80;;;;;;5013357;28;20025;-83
2022/11/30 09:11:29;;;;;;;24.58;14.18;;;204.90;2252.80;;;;;;5019271;28;20022;-81
2022/11/30 09:13:59;;;;;;;22.67;13.43;;;204.90;2252.80;;;;;;5012415;28;20032;-83
2022/11/30 09:16:25;;;;;;;22.50;12.88;;;205.00;2252.80;;;;;;5008748;28;20056;-82
2022/11/30 09:18:51;;;;;;;23.52;13.45;;;205.10;2252.80;;;;;;5031069;28;20025;-79
2022/11/30 09:21:22;;;;;;;19.77;12.00;;;205.10;2252.80;;;;;;5022911;28;20021;-80
2022/11/30 09:23:49;;;;;;;22.75;12.73;;;205.10;2252.80;;;;;;5017458;28;20477;-80
2022/11/30 09:26:17;;;;;;;21.50;12.57;;;205.10;2252.80;;;;;;5018057;28;20025;-81
2022/11/30 09:28:47;;;;;;;23.80;14.32;;;205.10;2252.80;;;;;;5013199;28;20562;-83
2022/11/30 09:31:21;;;;;;;23.50;13.05;;;205.20;2252.80;;;;;;5032365;28;20025;-81
2022/11/30 09:33:48;;;;;;;21.67;13.35;;;205.20;2252.80;;;;;;5021754;28;20116;-79
2022/11/30 09:36:16;;;;;;;24.27;13.88;;;205.20;2252.80;;;;;;5012274;28;20064;-82
2022/11/30 09:38:42;;;;;;;22.67;13.57;;;205.20;2252.80;;;;;;5034749;28;20021;-84
2022/11/30 09:41:26;;;;;;;;;;;205.30;2252.80;;;;;;5023755;28;20034;-80
2022/11/30 09:43:58;;;;;;;21.58;12.88;;;205.20;2252.80;;;;;;5014575;28;19913;-79
2022/11/30 09:46:32;;;;;;;24.10;13.18;;;205.20;2252.80;;;;;;5015947;28;20048;-79
2022/11/30 09:49:09;;;;;;;23.75;13.63;;;205.20;2252.80;;;;;;5027138;28;20498;-79
2022/11/30 09:51:46;;;;;;;28.00;16.15;;;205.30;2252.80;;;;;;5030513;28;20030;-80
2022/11/30 09:54:20;;;;;;;24.50;15.30;;;205.30;2252.80;;;;;;5013295;28;20037;-78
2022/11/30 09:56:46;;;;;;;23.85;14.82;;;205.40;2252.80;;;;;;5010214;28;20509;-78
2022/11/30 09:59:25;;;;;;;133.68;73.53;;;205.40;2252.80;;;;;;5018798;28;20045;-79
2022/11/30 10:01:51;;;;;;;214.10;121.78;;;205.50;2252.80;;;;;;5017251;28;20021;-82
2022/11/30 10:04:24;;;;;;;;;;;205.50;2252.80;;;;;;5017669;28;20025;-79
2022/11/30 10:07:04;;;;;;;55.22;34.05;;;205.50;2252.80;;;;;;5023325;28;19905;-79
2022/11/30 10:09:42;;;;;;;37.28;23.13;;;205.40;2252.80;;;;;;5017218;28;20022;-78
2022/11/30 10:12:32;;;;;;;29.70;18.45;;;205.50;2252.80;;;;;;5032868;28;20037;-78
2022/11/30 10:15:19;;;;;;;26.85;16.50;;;205.50;2252.80;;;;;;5006747;28;20490;-81
2022/11/30 10:17:55;;;;;;;26.38;15.73;;;205.60;2252.80;;;;;;5017109;28;20025;-86
2022/11/30 10:20:21;;;;;;;30.17;17.15;;;205.60;2252.80;;;;;;5034478;28;20029;-80
2022/11/30 10:23:00;;;;;;;;;;;205.70;2252.80;;;;;;5034130;28;20035;-79
2022/11/30 10:26:02;;;;;;;24.50;15.55;;;205.70;2252.80;;;;;;5017017;28;19909;-80
2022/11/30 10:28:39;;;;;;;28.42;17.98;;;230.40;2252.80;;;;;;4964354;28;20130;-78
2022/11/30 10:31:11;;;;;;;26.40;15.25;;;205.70;2252.80;;;;;;4983994;28;20028;-78
2022/11/30 10:33:47;;;;;;;31.33;16.92;;;230.40;2252.80;;;;;;4992194;28;20529;-79
2022/11/30 10:36:28;;;;;;;20.00;12.25;;;230.40;2252.80;;;;;;4992797;28;20022;-80
2022/11/30 10:38:59;;;;;;;25.77;14.63;;;230.40;2252.80;;;;;;4992722;28;20065;-79
2022/11/30 10:41:31;;;;;;;23.45;12.80;;;230.50;2252.80;;;;;;4976468;28;20022;-79
2022/11/30 10:44:03;;;;;;;23.45;12.07;;;230.50;2252.80;;;;;;4992904;28;20057;-79
2022/11/30 10:46:44;;;;;;;16.85;9.32;;;230.50;2252.80;;;;;;4975940;28;20041;-79
2022/11/30 10:49:17;;;;;;;15.93;8.95;;;230.50;2252.80;;;;;;4976809;28;20031;-81
2022/11/30 10:51:49;;;;;;;16.95;8.85;;;230.50;2252.80;;;;;;4989504;28;20502;-79
2022/11/30 10:54:18;;;;;;;15.52;9.68;;;230.40;2252.80;;;;;;4976807;28;20108;-83
2022/11/30 10:56:44;;;;;;;16.23;8.23;;;205.70;2252.80;;;;;;4976702;28;20050;-82
2022/11/30 10:59:23;;;;;;;16.42;8.90;;;230.40;2252.80;;;;;;4975388;28;20485;-79
2022/11/30 11:01:51;;;;;;;13.48;8.13;;;230.40;2252.80;;;;;;4983915;28;20022;-80
2022/11/30 11:04:21;;;;;;;15.63;9.05;;;230.50;2252.80;;;;;;4993963;28;20029;-80
2022/11/30 11:06:52;;;;;;;13.95;9.88;;;230.60;2252.80;;;;;;5025627;28;20026;-80
2022/11/30 11:09:38;;;;;;;14.35;9.32;;;230.60;2252.80;;;;;;5015984;28;20052;-79
2022/11/30 11:12:12;;;;;;;14.43;8.73;;;230.50;2252.80;;;;;;5032727;28;20048;-81
2022/11/30 11:14:38;;;;;;;16.20;9.95;;;230.60;2252.80;;;;;;5032908;28;20481;-81
2022/11/30 11:17:16;;;;;;;;;;;230.50;2252.80;;;;;;5015740;28;20057;-79
2022/11/30 11:19:43;;;;;;;13.65;8.68;;;230.50;2252.80;;;;;;5012642;28;19936;-80
2022/11/30 11:22:23;;;;;;;16.05;10.10;;;230.40;2252.80;;;;;;5009145;28;20037;-78
2022/11/30 11:24:52;;;;;;;16.75;10.07;;;230.40;2252.80;;;;;;5032317;28;20030;-78
2022/11/30 11:27:31;;;;;;;14.93;9.38;;;230.40;2252.80;;;;;;5015743;28;20033;-78
2022/11/30 11:30:06;;;;;;;18.10;10.02;;;230.40;2252.80;;;;;;5026907;28;20037;-82
2022/11/30 11:32:33;;;;;;;20.80;12.60;;;230.40;2252.80;;;;;;5022627;28;20022;-79
2022/11/30 11:34:59;;;;;;;18.17;11.32;;;230.50;2252.80;;;;;;5015181;28;20547;-81
2022/11/30 11:37:27;;;;;;;;;;;230.50;2252.80;;;;;;5015690;28;20022;-80
2022/11/30 11:40:02;;;;;;;22.10;13.55;;;230.60;2252.80;;;;;;5021226;28;20320;-81
2022/11/30 11:42:37;;;;;;;22.42;13.45;;;230.60;2252.80;;;;;;5005538;28;20053;-79
2022/11/30 11:45:04;;;;;;;22.15;13.43;;;230.60;2252.80;;;;;;5028670;28;20029;-79
2022/11/30 11:47:39;;;;;;;19.60;11.68;;;230.60;2252.80;;;;;;5002359;28;20022;-79
2022/11/30 11:50:28;;;;;;;20.25;11.93;;;230.60;2252.80;;;;;;5012386;28;20030;-79
2022/11/30 11:53:23;;;;;;;19.88;12.80;;;230.70;2252.80;;;;;;5024554;28;20108;-77
2022/11/30 11:55:58;;;;;;;26.00;15.90;;;230.70;2252.80;;;;;;5005726;28;20025;-80
2022/11/30 11:58:42;;;;;;;31.02;19.17;;;230.70;2252.80;;;;;;5004116;28;20040;-78
2022/11/30 12:01:18;;;;;;;27.95;18.15;;;230.70;2252.80;;;;;;5023543;28;20485;-79
2022/11/30 12:04:03;;;;;;;33.03;20.60;;;230.60;2252.80;;;;;;5010270;28;20049;-77
2022/11/30 12:06:31;;;;;;;42.67;24.63;;;230.70;2252.80;;;;;;5011797;28;20036;-82
2022/11/30 12:09:06;;;;;;;49.55;26.98;;;230.60;2252.80;;;;;;5023971;28;20034;-79
2022/11/30 12:11:41;;;;;;;55.92;30.45;;;230.60;2252.80;;;;;;5009365;28;20022;-79
2022/11/30 12:14:12;;;;;;;57.25;30.15;;;230.60;2252.80;;;;;;5004890;28;20030;-80
2022/11/30 12:16:56;;;;;;;40.15;22.98;;;230.60;2252.80;;;;;;5029488;28;20025;-80
2022/11/30 12:20:01;;;;;;;27.17;15.88;;;230.60;2252.80;;;;;;5023202;28;20547;-79
2022/11/30 12:22:53;;;;;;;24.63;14.15;;;230.60;2252.80;;;;;;4938113;29;20031;-79
2022/11/30 12:25:28;;;;;;;21.13;13.05;;;230.70;2252.80;;;;;;4934432;29;20027;-79
2022/11/30 12:28:17;;;;;;;29.83;14.05;;;230.60;2252.80;;;;;;4949963;28;20028;-79
2022/11/30 12:30:59;;;;;;;25.27;14.32;;;230.60;2252.80;;;;;;4913326;29;20595;-79
2022/11/30 12:33:30;;;;;;;24.13;15.27;;;230.60;2252.80;;;;;;4913641;29;20078;-80
2022/11/30 12:36:15;;;;;;;25.13;15.43;;;230.70;2252.80;;;;;;4913779;29;20072;-80
2022/11/30 12:38:43;;;;;;;27.60;15.95;;;230.60;2252.80;;;;;;4913656;29;20142;-79